Time;durP1;ratioP1;P1;durP2;ratioP2;P2;SDS_P1;SDS_P2;PMS_P1;PMS_P2;Temp;Humidity;BMP_temperature;BMP_pressure;BME280_temperature;BME280_humidity;BME280_pressure;Samples;Min_cycle;Max_cycle;Signal;HPM_P1;HPM_P2
2022/01/07 00:01:10;;;;;;;17.67;9.35;;;5.60;99.90;;;5.75;84.40;101092.84;5074892;28;20044;-70
2022/01/07 00:03:39;;;;;;;17.27;9.20;;;5.70;99.90;;;5.78;84.31;101106.03;5074345;28;20040;-70
2022/01/07 00:06:08;;;;;;;19.33;9.00;;;5.70;99.90;;;5.78;84.45;101092.00;5073205;28;20383;-70
2022/01/07 00:08:36;;;;;;;19.03;8.63;;;5.70;99.90;;;5.81;85.18;101090.31;5074336;28;20500;-70
2022/01/07 00:11:04;;;;;;;13.07;8.70;;;5.70;99.90;;;5.88;85.00;101086.13;5074182;28;20449;-70
2022/01/07 00:13:33;;;;;;;16.20;8.40;;;5.80;99.90;;;5.83;85.00;101095.59;5074404;28;20452;-70
2022/01/07 00:16:03;;;;;;;19.77;8.63;;;5.70;99.90;;;5.79;84.96;101092.03;5074650;28;20438;-69
2022/01/07 00:18:32;;;;;;;21.08;9.13;;;5.60;99.90;;;5.81;85.32;101089.44;5074168;28;20048;-70
2022/01/07 00:21:01;;;;;;;20.20;9.70;;;5.70;99.90;;;5.80;84.97;101078.06;5074291;28;20072;-70
2022/01/07 00:23:30;;;;;;;17.23;8.70;;;5.70;99.90;;;5.75;85.10;101065.72;5074241;28;20044;-70
2022/01/07 00:25:58;;;;;;;18.13;8.60;;;5.70;99.90;;;5.82;84.88;101079.00;5074151;28;20052;-69
2022/01/07 00:28:27;;;;;;;16.90;8.97;;;5.70;99.90;;;5.80;85.05;101113.94;5073828;28;20075;-69
2022/01/07 00:30:55;;;;;;;17.37;8.73;;;5.70;99.90;;;5.72;84.91;101047.28;5073742;28;20521;-69
2022/01/07 00:33:25;;;;;;;16.17;8.93;;;5.70;99.90;;;5.83;85.18;101067.66;5073769;28;20044;-70
2022/01/07 00:35:56;;;;;;;17.80;8.35;;;5.70;99.90;;;5.79;85.30;101073.66;5073738;28;20053;-70
2022/01/07 00:38:24;;;;;;;;;;;5.70;99.90;;;5.74;85.35;101056.06;5074700;28;20044;-70
2022/01/07 00:40:53;;;;;;;20.40;9.20;;;5.70;99.90;;;5.90;85.72;101039.78;5073853;28;20049;-70
2022/01/07 00:43:21;;;;;;;14.77;8.70;;;5.70;99.90;;;5.75;85.74;101066.59;5073523;28;20090;-69
2022/01/07 00:45:50;;;;;;;14.83;8.80;;;5.70;99.90;;;5.74;86.34;101050.81;5073538;28;20052;-69
2022/01/07 00:48:18;;;;;;;20.07;9.60;;;5.60;99.90;;;5.78;86.63;101031.66;5072402;28;20135;-70
2022/01/07 00:50:48;;;;;;;16.33;8.23;;;5.60;99.90;;;5.70;87.58;101028.91;5073371;28;20048;-70
2022/01/07 00:53:17;;;;;;;14.00;8.68;;;5.60;99.90;;;5.70;87.66;101036.78;5072390;28;20102;-70
2022/01/07 00:55:45;;;;;;;15.53;10.07;;;5.60;99.90;;;5.71;88.06;101020.16;5073579;28;20052;-70
2022/01/07 00:58:14;;;;;;;22.00;9.00;;;5.60;99.90;;;5.63;88.29;101015.66;5072121;28;20452;-70
2022/01/07 01:00:43;;;;;;;22.20;9.90;;;5.50;99.90;;;5.70;88.29;101017.50;5073342;28;20130;-70
2022/01/07 01:03:11;;;;;;;22.90;10.13;;;5.60;99.90;;;5.74;88.15;101017.59;5072182;28;20135;-69
2022/01/07 01:05:42;;;;;;;20.07;10.87;;;5.60;99.90;;;5.74;88.10;101024.59;5073178;28;20075;-70
2022/01/07 01:08:13;;;;;;;14.00;10.03;;;5.60;99.90;;;5.76;88.31;101050.00;5073262;28;20052;-70
2022/01/07 01:10:41;;;;;;;16.58;9.25;;;5.60;99.90;;;5.69;88.63;101006.13;5073471;28;20057;-70
2022/01/07 01:13:10;;;;;;;15.97;9.27;;;5.60;99.90;;;5.80;88.58;101015.09;5073068;28;20040;-70
2022/01/07 01:15:38;;;;;;;20.47;10.60;;;5.60;99.90;;;5.81;88.77;101014.22;5073231;28;20076;-70
2022/01/07 01:18:07;;;;;;;21.80;10.37;;;5.70;99.90;;;5.79;88.74;101005.44;5073036;28;20098;-70
2022/01/07 01:20:36;;;;;;;18.60;10.50;;;5.70;99.90;;;5.80;89.32;101009.84;5072997;28;20044;-70
2022/01/07 01:23:05;;;;;;;20.70;10.73;;;5.70;99.90;;;5.82;89.09;101012.50;5072948;28;20128;-70
2022/01/07 01:25:35;;;;;;;21.80;11.27;;;5.70;99.90;;;5.67;89.11;100993.88;5073157;28;20436;-70
2022/01/07 01:28:04;;;;;;;18.92;10.38;;;5.70;99.90;;;5.80;88.82;101003.69;5072936;28;20101;-70
2022/01/07 01:30:34;;;;;;;19.67;10.83;;;5.70;99.90;;;5.82;88.79;101000.25;5071879;28;20482;-70
2022/01/07 01:33:03;;;;;;;18.17;10.75;;;5.70;99.90;;;5.84;88.93;101003.81;5073208;28;20525;-70
2022/01/07 01:35:32;;;;;;;14.37;11.03;;;5.70;99.90;;;5.82;89.52;100976.63;5073131;28;20044;-70
2022/01/07 01:38:01;;;;;;;21.63;11.10;;;5.70;99.90;;;5.77;89.36;100975.66;5071887;28;20452;-70
2022/01/07 01:40:29;;;;;;;21.53;11.13;;;5.70;99.90;;;5.76;89.53;100987.03;5073155;28;20055;-70
2022/01/07 01:43:00;;;;;;;23.83;12.40;;;5.60;99.90;;;5.64;89.37;100944.84;5071646;28;20052;-70
2022/01/07 01:45:29;;;;;;;19.23;11.05;;;5.60;99.90;;;5.79;89.87;100976.56;5072770;28;20043;-70
2022/01/07 01:47:58;;;;;;;20.60;12.50;;;5.70;99.90;;;5.79;89.84;100970.47;5071738;28;20052;-70
2022/01/07 01:50:26;;;;;;;17.40;11.57;;;5.60;99.90;;;5.78;89.95;100974.81;5072685;28;20056;-70
2022/01/07 01:52:57;;;;;;;18.03;11.90;;;5.70;99.90;;;5.88;90.11;100963.66;5072950;28;20044;-70
2022/01/07 01:55:28;;;;;;;18.13;12.60;;;5.70;99.90;;;5.76;89.94;100976.53;5071682;28;20073;-70
2022/01/07 01:57:57;;;;;;;;;;;5.70;99.90;;;5.82;90.59;100974.00;5073590;28;20131;-70
2022/01/07 02:00:28;;;;;;;16.83;12.23;;;5.70;99.90;;;5.15;90.45;100846.09;5073122;28;19924;-70
2022/01/07 02:02:56;;;;;;;23.77;13.00;;;5.70;99.90;;;5.93;90.48;100961.97;5073156;28;20367;-70
2022/01/07 02:05:26;;;;;;;20.13;13.10;;;5.80;99.90;;;5.84;90.90;100937.31;5072632;28;20048;-70
2022/01/07 02:07:55;;;;;;;16.93;11.70;;;5.70;99.90;;;5.73;91.30;100939.72;5072904;28;20048;-70
2022/01/07 02:10:24;;;;;;;16.80;12.37;;;5.60;99.90;;;5.80;91.47;100946.84;5072440;28;20513;-70
2022/01/07 02:12:53;;;;;;;20.67;13.13;;;5.70;99.90;;;5.92;91.56;100962.81;5072372;28;20070;-70
2022/01/07 02:15:21;;;;;;;20.75;12.88;;;5.70;99.90;;;5.89;91.41;100935.63;5072308;28;20119;-70
2022/01/07 02:17:53;;;;;;;25.20;12.90;;;5.80;99.90;;;5.83;91.91;100957.44;5072322;28;20121;-70
2022/01/07 02:20:27;;;;;;;20.17;13.03;;;5.70;99.90;;;5.81;92.18;100945.09;5072293;28;20036;-69
2022/01/07 02:22:58;;;;;;;18.57;13.07;;;5.70;99.90;;;5.77;92.39;100944.16;5072786;28;20048;-70
2022/01/07 02:25:27;;;;;;;;;;;5.60;99.90;;;5.88;92.87;100945.28;5073370;28;20048;-69
2022/01/07 02:27:56;;;;;;;20.90;13.97;;;5.70;99.90;;;5.89;92.67;100910.28;5072275;28;20009;-70
2022/01/07 02:30:27;;;;;;;22.50;14.23;;;5.80;99.90;;;5.82;92.68;100934.66;5076171;28;20098;-70
2022/01/07 02:32:57;;;;;;;17.10;12.50;;;5.70;99.90;;;5.82;92.86;100911.03;5076099;28;20072;-70
2022/01/07 02:35:30;;;;;;;18.48;13.32;;;5.70;99.90;;;5.84;93.00;100927.72;5076028;28;20048;-70
2022/01/07 02:37:59;;;;;;;20.20;14.60;;;5.70;99.90;;;5.67;92.99;100887.16;5076026;28;20123;-70
2022/01/07 02:40:27;;;;;;;20.50;14.97;;;5.70;99.90;;;5.90;93.29;100937.41;5075881;28;20595;-70
2022/01/07 02:42:56;;;;;;;22.73;14.47;;;5.70;99.90;;;5.92;93.17;100912.94;5075751;28;20047;-70
2022/01/07 02:45:24;;;;;;;18.57;15.13;;;5.70;99.90;;;5.75;93.49;100896.03;5076047;28;20390;-70
2022/01/07 02:47:54;;;;;;;23.50;15.18;;;5.80;99.90;;;5.95;93.28;100910.38;5076302;28;20080;-70
2022/01/07 02:50:27;;;;;;;22.30;13.35;;;5.80;99.90;;;5.93;93.48;100901.59;5076337;28;20084;-70
2022/01/07 02:52:57;;;;;;;25.40;15.27;;;5.80;99.90;;;5.96;93.46;100891.13;5075755;28;20049;-70
2022/01/07 02:55:27;;;;;;;22.55;14.77;;;5.80;99.90;;;5.88;93.54;100861.28;5074645;28;20052;-70
2022/01/07 02:57:56;;;;;;;22.85;16.08;;;5.80;99.90;;;6.05;93.51;100891.28;5075796;28;20105;-70
2022/01/07 03:00:27;;;;;;;22.10;15.07;;;5.90;99.90;;;6.02;93.78;100895.59;5075807;28;20075;-70
2022/01/07 03:02:57;;;;;;;18.90;13.33;;;5.90;99.90;;;5.96;93.84;100890.28;5076002;28;20479;-70
2022/01/07 03:05:28;;;;;;;22.50;14.38;;;5.90;99.90;;;6.09;93.63;100885.22;5075523;28;20036;-70
2022/01/07 03:07:56;;;;;;;;;;;5.90;99.90;;;6.06;93.66;100895.66;5075904;28;20094;-69
2022/01/07 03:10:29;;;;;;;20.97;14.20;;;6.00;99.90;;;6.05;94.03;100879.88;5075361;28;19975;-69
2022/01/07 03:12:59;;;;;;;21.43;14.10;;;5.90;99.90;;;6.08;93.76;100874.66;5075928;28;20127;-70
2022/01/07 03:15:28;;;;;;;20.90;14.20;;;5.90;99.90;;;5.98;93.83;100884.16;5075272;28;20567;-70
2022/01/07 03:17:56;;;;;;;19.33;13.17;;;5.90;99.90;;;6.02;94.03;100875.47;5075225;28;20131;-69
2022/01/07 03:20:25;;;;;;;19.30;13.77;;;5.90;99.90;;;6.10;94.32;100875.56;5074194;28;20083;-70
2022/01/07 03:22:56;;;;;;;18.37;14.30;;;5.90;99.90;;;6.03;94.51;100871.09;5075085;28;20040;-70
2022/01/07 03:25:24;;;;;;;22.63;14.65;;;5.90;99.90;;;5.99;94.72;100875.44;5075436;28;20041;-69
2022/01/07 03:27:53;;;;;;;16.03;14.17;;;5.90;99.90;;;6.01;94.91;100838.69;5074003;28;20555;-70
2022/01/07 03:30:21;;;;;;;22.90;15.00;;;5.90;99.90;;;6.03;95.23;100852.72;5075004;28;20060;-70
2022/01/07 03:32:50;;;;;;;18.42;13.77;;;5.90;99.90;;;6.08;95.37;100857.19;5075201;28;20427;-70
2022/01/07 03:35:18;;;;;;;22.17;13.93;;;5.90;99.90;;;6.16;94.90;100841.50;5073847;28;20135;-70
2022/01/07 03:37:49;;;;;;;18.00;15.27;;;6.00;99.90;;;6.08;94.96;100843.16;5074870;28;20064;-70
2022/01/07 03:40:21;;;;;;;21.57;15.13;;;6.00;99.90;;;6.10;95.16;100854.56;5074649;28;20102;-70
2022/01/07 03:42:51;;;;;;;26.33;15.65;;;5.90;99.90;;;6.09;95.42;100848.44;5075394;28;20110;-70
2022/01/07 03:45:22;;;;;;;22.13;14.57;;;6.00;99.90;;;6.16;95.29;100842.41;5074954;28;20406;-70
2022/01/07 03:47:52;;;;;;;24.10;14.93;;;6.00;99.90;;;6.26;95.21;100818.03;5075011;28;20053;-70
2022/01/07 03:50:23;;;;;;;23.00;14.23;;;6.10;99.90;;;6.23;95.25;100819.75;5074703;28;20524;-69
2022/01/07 03:52:52;;;;;;;22.55;14.18;;;6.10;99.90;;;6.22;95.11;100816.22;5074650;28;20082;-70
2022/01/07 03:55:24;;;;;;;19.13;14.50;;;6.10;99.90;;;6.21;95.38;100809.19;5074802;28;20119;-70
2022/01/07 03:57:53;;;;;;;21.30;14.30;;;6.10;99.90;;;6.26;95.26;100818.03;5074598;28;20143;-70
2022/01/07 04:00:27;;;;;;;19.65;14.80;;;6.10;99.90;;;6.33;95.06;100825.09;5074408;28;20052;-70
2022/01/07 04:02:56;;;;;;;21.80;14.85;;;6.20;99.90;;;6.41;95.07;100821.72;5074371;28;20102;-70
2022/01/07 04:05:24;;;;;;;20.17;15.13;;;6.20;99.90;;;6.41;95.16;100811.19;5074292;28;20098;-70
2022/01/07 04:07:52;;;;;;;20.48;14.43;;;6.20;99.90;;;6.42;94.87;100818.19;5074272;28;20545;-70
2022/01/07 04:10:22;;;;;;;17.93;13.17;;;6.30;99.90;;;6.36;94.77;100809.41;5074751;28;20080;-70
2022/01/07 04:12:51;;;;;;;21.33;13.02;;;6.30;99.90;;;6.25;95.00;100810.16;5073188;28;20048;-70
2022/01/07 04:15:22;;;;;;;20.00;13.18;;;6.20;99.90;;;6.46;94.78;100804.25;5074336;28;20455;-70
2022/01/07 04:17:52;;;;;;;21.08;14.18;;;6.30;99.90;;;6.55;94.54;100817.47;5074397;28;20414;-70
2022/01/07 04:20:23;;;;;;;;;;;6.40;99.90;;;6.53;94.51;100827.06;5074453;28;20093;-70
2022/01/07 04:22:52;;;;;;;23.25;13.43;;;6.40;99.90;;;6.55;94.61;100813.09;5074573;28;19924;-70
2022/01/07 04:25:23;;;;;;;23.42;13.07;;;6.40;99.90;;;6.57;94.06;100818.38;5072558;28;20143;-70
2022/01/07 04:27:54;;;;;;;22.30;12.50;;;6.40;99.90;;;6.51;94.14;100810.41;5074208;28;20072;-70
2022/01/07 04:30:24;;;;;;;20.20;13.43;;;6.40;99.90;;;6.43;94.38;100786.69;5074124;28;20105;-70
2022/01/07 04:32:54;;;;;;;22.73;12.75;;;6.40;99.90;;;6.58;94.33;100807.88;5074060;28;20095;-70
2022/01/07 04:35:23;;;;;;;17.75;11.70;;;6.40;99.90;;;6.57;94.43;100813.09;5074006;28;20052;-70
2022/01/07 04:37:52;;;;;;;17.10;12.43;;;6.40;99.90;;;6.47;94.60;100787.59;5073950;28;20098;-70
2022/01/07 04:40:23;;;;;;;17.95;12.80;;;6.40;99.90;;;6.51;95.25;100797.28;5073866;28;20044;-70
2022/01/07 04:42:52;;;;;;;19.43;13.40;;;6.30;99.90;;;6.53;95.42;100803.44;5073672;28;20056;-70
2022/01/07 04:45:20;;;;;;;20.33;13.07;;;6.30;99.90;;;6.48;95.57;100786.75;5073715;28;20079;-70
2022/01/07 04:47:48;;;;;;;22.17;13.30;;;6.30;99.90;;;6.54;95.76;100786.81;5073992;28;20071;-70
2022/01/07 04:50:20;;;;;;;21.30;14.70;;;6.40;99.90;;;6.58;95.68;100791.25;5073974;28;20048;-70
2022/01/07 04:52:48;;;;;;;27.77;16.20;;;6.40;99.90;;;6.57;95.80;100787.72;5072903;28;20041;-70
2022/01/07 04:55:21;;;;;;;23.95;14.38;;;6.40;99.90;;;6.56;96.00;100795.59;5073331;28;20446;-70
2022/01/07 04:57:52;;;;;;;25.88;14.18;;;6.40;99.90;;;6.47;95.79;100771.84;5073148;28;20084;-70
2022/01/07 05:00:22;;;;;;;;;;;6.40;99.90;;;6.41;95.86;100771.81;5074029;28;20471;-70
2022/01/07 05:02:50;;;;;;;20.30;13.55;;;6.40;99.90;;;6.55;96.10;100788.56;5073792;28;20011;-70
2022/01/07 05:05:19;;;;;;;22.83;15.50;;;6.40;99.90;;;6.44;95.75;100772.72;5073063;28;20043;-70
2022/01/07 05:07:48;;;;;;;19.35;14.23;;;6.40;99.90;;;6.50;95.86;100782.41;5073410;28;20421;-70
2022/01/07 05:10:17;;;;;;;21.55;13.57;;;6.40;99.90;;;6.38;96.03;100772.63;5073143;28;20048;-70
2022/01/07 05:12:46;;;;;;;25.57;14.43;;;6.40;99.90;;;6.46;96.19;100792.00;5071977;28;20078;-69
2022/01/07 05:15:18;;;;;;;22.67;14.63;;;6.30;99.90;;;6.53;96.43;100787.66;5073587;28;20071;-70
2022/01/07 05:17:47;;;;;;;22.13;14.10;;;6.30;99.90;;;6.50;96.28;100790.28;5073278;28;20418;-70
2022/01/07 05:20:17;;;;;;;27.75;14.07;;;6.30;99.90;;;6.54;95.91;100800.84;5073528;28;20136;-70
2022/01/07 05:22:46;;;;;;;18.85;13.13;;;6.40;99.90;;;6.53;95.78;100808.69;5073248;28;20048;-70
2022/01/07 05:25:16;;;;;;;24.87;14.80;;;6.40;99.90;;;6.33;95.81;100782.19;5073009;28;20076;-70
2022/01/07 05:27:44;;;;;;;30.80;14.43;;;6.30;99.90;;;6.44;96.28;100782.31;5072840;28;20055;-70
2022/01/07 05:30:15;;;;;;;28.85;14.30;;;6.30;99.90;;;6.48;96.28;100799.88;5072823;28;20506;-70
2022/01/07 05:32:43;;;;;;;;;;;6.30;99.90;;;6.54;95.99;100799.97;5073319;28;20101;-70
2022/01/07 05:35:12;;;;;;;22.83;14.43;;;6.40;99.90;;;6.59;95.98;100796.50;5072806;28;19997;-70
2022/01/07 05:37:40;;;;;;;25.98;15.02;;;6.40;99.90;;;6.55;95.73;100796.44;5073296;28;20044;-70
2022/01/07 05:40:10;;;;;;;25.42;15.52;;;6.40;99.90;;;6.61;95.98;100792.16;5072750;28;20075;-70
2022/01/07 05:42:39;;;;;;;25.63;15.55;;;6.40;99.90;;;6.57;95.83;100792.09;5073066;28;20098;-70
2022/01/07 05:45:09;;;;;;;26.88;16.00;;;6.40;99.90;;;6.53;95.29;100801.69;5071548;28;20500;-70
2022/01/07 05:47:38;;;;;;;18.73;14.48;;;6.40;99.90;;;6.59;95.26;100803.50;5072878;28;20463;-70
2022/01/07 05:50:09;;;;;;;22.43;14.60;;;6.40;99.90;;;6.41;95.33;100769.19;5072608;28;20129;-70
2022/01/07 05:52:38;;;;;;;27.55;15.63;;;6.40;99.90;;;6.55;95.45;100796.44;5072948;28;20500;-70
2022/01/07 05:55:07;;;;;;;34.47;15.40;;;6.40;99.90;;;6.58;95.54;100802.59;5073046;28;20076;-69
2022/01/07 05:57:36;;;;;;;30.27;16.05;;;6.40;99.90;;;6.53;95.99;100806.06;5072511;28;20464;-70
2022/01/07 06:00:08;;;;;;;25.50;15.63;;;6.40;99.90;;;6.69;96.01;100808.88;5072543;28;20075;-70
2022/01/07 06:02:41;;;;;;;23.63;15.13;;;6.50;99.90;;;6.58;95.46;100804.38;5072608;28;20457;-70
2022/01/07 06:05:09;;;;;;;25.95;16.10;;;6.50;99.90;;;6.61;95.96;100817.53;5074961;28;20486;-70
2022/01/07 06:07:38;;;;;;;28.88;16.17;;;6.40;99.90;;;6.61;96.10;100814.91;5076563;28;20508;-70
2022/01/07 06:10:08;;;;;;;24.87;15.23;;;6.50;99.90;;;6.69;95.91;100808.00;5076804;28;20048;-70
2022/01/07 06:12:36;;;;;;;22.50;14.35;;;6.50;99.90;;;6.70;95.77;100809.72;5076520;28;20503;-69
2022/01/07 06:15:07;;;;;;;25.20;14.60;;;6.50;99.90;;;6.16;95.46;100720.72;5076931;28;20055;-70
2022/01/07 06:17:35;;;;;;;26.27;14.93;;;6.50;99.90;;;6.64;95.48;100793.94;5076694;28;20048;-69
2022/01/07 06:20:06;;;;;;;26.88;14.70;;;6.50;99.90;;;6.75;95.34;100813.31;5075286;28;20041;-70
2022/01/07 06:22:35;;;;;;;25.90;14.65;;;6.60;99.90;;;6.74;95.12;100808.91;5076601;28;20123;-70
2022/01/07 06:25:05;;;;;;;24.77;14.90;;;6.50;99.90;;;6.64;95.24;100788.69;5076379;28;20512;-70
2022/01/07 06:27:34;;;;;;;23.92;13.95;;;6.50;99.90;;;6.75;95.18;100792.28;5075169;28;20076;-69
2022/01/07 06:30:03;;;;;;;23.40;14.50;;;6.60;99.90;;;6.74;95.08;100801.03;5075120;28;20406;-70
2022/01/07 06:32:32;;;;;;;23.20;14.50;;;6.60;99.90;;;6.66;95.32;100797.47;5076611;28;20131;-69
2022/01/07 06:35:00;;;;;;;20.75;13.68;;;6.50;99.90;;;6.63;94.92;100798.31;5076018;28;20090;-70
2022/01/07 06:37:30;;;;;;;28.50;13.80;;;6.50;99.90;;;6.59;95.71;100790.34;5076239;28;20134;-70
2022/01/07 06:39:59;;;;;;;24.48;12.57;;;6.40;99.90;;;6.53;95.63;100764.91;5076449;28;20140;-70
2022/01/07 06:42:28;;;;;;;24.85;12.88;;;6.50;99.90;;;6.60;95.73;100800.03;5076116;28;20131;-70
2022/01/07 06:44:57;;;;;;;26.00;13.80;;;6.40;99.90;;;6.55;96.16;100783.31;5075676;28;20449;-70
2022/01/07 06:47:26;;;;;;;25.27;13.35;;;6.40;99.90;;;6.55;96.04;100794.72;5075722;28;20135;-70
2022/01/07 06:49:55;;;;;;;20.38;12.93;;;6.40;99.90;;;6.60;96.28;100797.41;5075959;28;20106;-70
2022/01/07 06:52:23;;;;;;;20.45;12.98;;;6.40;99.90;;;6.60;96.13;100802.66;5075646;28;20123;-70
2022/01/07 06:54:53;;;;;;;23.90;12.57;;;6.40;99.90;;;6.53;96.44;100796.44;5075635;28;20472;-70
2022/01/07 06:57:21;;;;;;;18.42;11.73;;;6.40;99.90;;;6.68;95.95;100807.09;5075588;28;20052;-69
2022/01/07 06:59:50;;;;;;;25.80;13.17;;;6.50;99.90;;;6.66;95.86;100808.81;5075627;28;20486;-70
2022/01/07 07:02:18;;;;;;;24.43;12.50;;;6.50;99.90;;;6.66;95.83;100813.22;5075559;28;20040;-70
2022/01/07 07:04:47;;;;;;;25.02;11.70;;;6.50;99.90;;;6.64;95.38;100804.44;5075392;28;20048;-70
2022/01/07 07:07:16;;;;;;;22.40;13.07;;;6.50;99.90;;;6.60;95.36;100792.16;5075431;28;20128;-70
2022/01/07 07:09:44;;;;;;;24.00;11.55;;;6.50;99.90;;;6.65;95.58;100801.81;5074321;28;20490;-70
2022/01/07 07:12:14;;;;;;;25.35;11.70;;;6.40;99.90;;;6.65;95.54;100786.06;5075327;28;20427;-70
2022/01/07 07:14:42;;;;;;;30.30;11.93;;;6.50;99.90;;;6.71;95.29;100798.38;5074744;28;20049;-70
2022/01/07 07:17:13;;;;;;;24.13;11.88;;;6.50;99.90;;;6.75;95.26;100803.69;5075622;28;20040;-70
2022/01/07 07:19:41;;;;;;;20.92;11.40;;;6.50;99.90;;;6.71;95.09;100803.63;5075495;28;20514;-70
2022/01/07 07:22:10;;;;;;;24.23;11.73;;;6.50;99.90;;;6.72;95.15;100797.50;5075405;28;20044;-69
2022/01/07 07:24:38;;;;;;;18.88;10.70;;;6.50;99.90;;;6.74;95.19;100794.03;5075088;28;20135;-69
2022/01/07 07:27:07;;;;;;;18.48;9.90;;;6.60;99.90;;;6.61;95.44;100758.00;5075090;28;20098;-69
2022/01/07 07:29:36;;;;;;;26.03;11.00;;;6.50;99.90;;;6.72;95.20;100774.72;5073935;28;20537;-70
2022/01/07 07:32:09;;;;;;;21.52;9.65;;;6.60;99.90;;;6.67;95.12;100779.06;5074012;28;20379;-69
2022/01/07 07:37:38;;;;;;;;;;;6.60;99.90;;;6.62;95.19;100772.88;5013342;28;20054;-70
2022/01/07 07:40:08;;;;;;;20.02;10.50;;;6.50;99.90;;;6.58;95.18;100778.97;5012874;28;19928;-70
2022/01/07 07:42:37;;;;;;;18.95;9.55;;;6.50;99.90;;;6.60;95.56;100794.75;5041729;28;20052;-70
2022/01/07 07:45:13;;;;;;;19.75;9.77;;;6.40;99.90;;;6.61;95.02;100791.25;5073739;28;20072;-71
2022/01/07 07:47:42;;;;;;;22.43;10.27;;;6.40;99.90;;;6.60;95.04;100786.88;5074705;28;20041;-68
2022/01/07 07:50:15;;;;;;;17.73;9.63;;;6.40;99.90;;;6.63;94.48;100786.91;5074686;28;20056;-71
2022/01/07 07:52:43;;;;;;;20.02;9.95;;;6.40;99.90;;;6.64;94.66;100788.69;5074592;28;20075;-71
2022/01/07 07:55:12;;;;;;;19.63;10.35;;;6.50;99.90;;;6.67;94.44;100793.94;5075089;28;20116;-69
2022/01/07 07:57:40;;;;;;;19.55;9.73;;;6.50;99.90;;;6.69;94.11;100800.09;5074567;28;20067;-71
2022/01/07 08:00:12;;;;;;;24.98;10.98;;;6.50;99.90;;;6.64;94.50;100807.94;5073328;28;20071;-69
2022/01/07 08:02:41;;;;;;;22.92;10.15;;;6.50;99.90;;;6.64;94.58;100804.44;5074992;28;20056;-69
2022/01/07 08:05:10;;;;;;;22.38;9.50;;;6.50;99.90;;;6.71;94.37;100806.25;5074225;28;20498;-70
2022/01/07 08:07:39;;;;;;;20.35;9.73;;;6.50;99.90;;;6.66;94.81;100818.47;5074478;28;20093;-68
2022/01/07 08:10:09;;;;;;;19.93;10.20;;;6.40;99.90;;;6.66;94.46;100818.47;5074384;28;20130;-69
2022/01/07 08:12:53;;;;;;;19.45;10.25;;;6.50;99.90;;;6.62;94.72;100819.31;5074310;28;20095;-70
2022/01/07 08:18:09;;;;;;;21.57;10.97;;;6.40;99.90;;;6.63;94.38;100819.31;5074277;28;20045;-71
2022/01/07 08:20:39;;;;;;;26.23;10.80;;;6.50;99.90;;;6.60;94.66;100816.66;5072892;28;20156;-72
2022/01/07 08:23:08;;;;;;;25.48;11.38;;;6.50;99.90;;;6.61;94.57;100821.06;5073166;28;20052;-72
2022/01/07 08:25:36;;;;;;;21.40;10.80;;;6.50;99.90;;;6.56;94.34;100807.00;5073398;28;20119;-69
2022/01/07 08:28:06;;;;;;;16.27;10.97;;;6.40;99.90;;;6.63;94.79;100794.78;5072251;28;20494;-71
2022/01/07 08:30:37;;;;;;;21.98;11.25;;;6.50;99.90;;;6.61;94.67;100799.13;5074318;28;20048;-69
2022/01/07 08:35:52;;;;;;;22.40;11.67;;;6.50;99.90;;;6.70;94.92;100796.59;5073561;28;20040;-74
2022/01/07 08:38:20;;;;;;;19.63;10.63;;;6.50;99.90;;;6.92;94.82;100812.59;5073892;28;20456;-71
2022/01/07 08:40:49;;;;;;;24.95;10.20;;;6.70;99.90;;;7.16;94.12;100820.69;5073616;28;20102;-72
2022/01/07 08:43:17;;;;;;;18.40;10.43;;;6.90;99.90;;;7.34;93.41;100809.44;5074022;28;20105;-69
2022/01/07 08:45:47;;;;;;;18.92;10.73;;;7.10;99.90;;;7.54;92.97;100820.13;5073620;28;20045;-69
2022/01/07 08:48:15;;;;;;;23.57;10.00;;;7.30;99.90;;;7.79;92.20;100816.78;5073728;28;20040;-70
2022/01/07 08:50:44;;;;;;;24.13;10.57;;;7.60;99.90;;;8.00;91.45;100822.16;5072386;28;20288;-69
2022/01/07 08:53:13;;;;;;;21.60;10.13;;;7.80;99.90;;;8.00;90.71;100820.41;5073330;28;20123;-78
2022/01/07 08:55:41;;;;;;;21.42;10.20;;;7.80;99.90;;;8.02;90.44;100807.25;5073465;28;20094;-72
2022/01/07 08:58:09;;;;;;;18.98;10.10;;;7.80;99.90;;;8.19;90.50;100803.81;5073090;28;20091;-73
2022/01/07 09:00:38;;;;;;;22.70;9.85;;;8.00;99.90;;;8.31;89.88;100812.66;5073172;28;20086;-72
2022/01/07 09:03:07;;;;;;;18.13;8.90;;;8.10;99.90;;;8.34;88.49;100796.88;5073640;28;20474;-76
2022/01/07 09:05:36;;;;;;;21.50;8.55;;;8.20;99.90;;;8.55;87.49;100820.66;5073059;28;20048;-73
2022/01/07 09:08:09;;;;;;;23.00;9.18;;;8.30;99.90;;;8.39;86.81;100811.81;5073292;28;20448;-74
2022/01/07 09:10:37;;;;;;;16.50;8.65;;;8.20;99.90;;;8.25;86.53;100802.97;5073255;28;20053;-73
2022/01/07 09:13:07;;;;;;;17.92;9.05;;;8.10;99.90;;;7.94;87.11;100786.13;5072908;28;20052;-69
2022/01/07 09:15:35;;;;;;;20.10;8.40;;;7.90;99.90;;;7.83;87.57;100774.69;5073525;28;20084;-67
2022/01/07 09:18:09;;;;;;;21.60;9.15;;;7.80;99.90;;;7.84;87.97;100818.56;5072900;28;20037;-75
2022/01/07 09:20:40;;;;;;;16.98;8.77;;;7.70;99.90;;;7.68;89.47;100808.81;5072955;28;20132;-76
2022/01/07 09:23:09;;;;;;;19.95;8.52;;;7.50;99.90;;;7.70;89.35;100804.44;5073466;28;20048;-76
2022/01/07 09:25:38;;;;;;;20.13;8.82;;;7.50;99.90;;;7.65;89.56;100808.78;5072813;28;20131;-73
2022/01/07 09:28:08;;;;;;;21.25;9.90;;;7.50;99.90;;;7.64;90.04;100800.88;5072706;28;20131;-75
2022/01/07 09:30:37;;;;;;;21.27;9.25;;;7.50;99.90;;;7.62;89.74;100795.63;5073056;28;20098;-75
2022/01/07 09:33:06;;;;;;;20.98;8.65;;;7.50;99.90;;;7.69;90.22;100802.66;5072777;28;20071;-76
2022/01/07 09:35:35;;;;;;;17.73;8.80;;;7.50;99.90;;;7.79;90.00;100803.59;5072690;28;20075;-75
2022/01/07 09:38:05;;;;;;;24.00;8.95;;;7.50;99.90;;;7.78;89.75;100804.50;5072556;28;20064;-75
2022/01/07 09:40:34;;;;;;;26.00;8.63;;;7.60;99.90;;;7.71;90.42;100807.94;5073370;28;20083;-74
2022/01/07 09:43:06;;;;;;;22.50;8.77;;;7.50;99.90;;;7.71;90.67;100808.81;5072907;28;20044;-73
2022/01/07 09:45:38;;;;;;;22.58;10.05;;;7.50;99.90;;;7.81;91.03;100815.91;5072662;28;20047;-73
2022/01/07 09:48:08;;;;;;;22.13;8.55;;;7.60;99.90;;;7.73;91.05;100808.84;5072542;28;20040;-72
2022/01/07 09:50:38;;;;;;;23.30;8.85;;;7.50;99.90;;;7.65;90.66;100808.78;5072918;28;20071;-72
2022/01/07 09:53:12;;;;;;;24.73;10.20;;;7.50;99.90;;;7.58;90.82;100806.13;5072523;28;20044;-73
2022/01/07 09:55:41;;;;;;;22.05;9.27;;;7.40;99.90;;;7.69;91.18;100799.16;5073031;28;20045;-73
2022/01/07 09:58:10;;;;;;;24.00;9.88;;;7.50;99.90;;;7.75;90.81;100807.97;5072844;28;20143;-73
2022/01/07 10:00:45;;;;;;;18.67;9.40;;;7.50;99.90;;;7.83;90.83;100803.66;5072465;28;20128;-74
2022/01/07 10:03:16;;;;;;;23.17;10.65;;;7.60;99.90;;;7.84;90.93;100807.16;5072864;28;20044;-73
2022/01/07 10:05:49;;;;;;;23.20;8.82;;;7.60;99.90;;;7.77;91.13;100806.25;5072497;28;20082;-73
2022/01/07 10:08:24;;;;;;;25.98;9.75;;;7.60;99.90;;;8.02;91.31;100809.88;5072423;28;20116;-74
2022/01/07 10:11:14;;;;;;;23.45;9.45;;;7.70;99.90;;;8.28;91.10;100812.66;5072733;28;20049;-72
2022/01/07 10:13:44;;;;;;;27.90;8.35;;;8.00;99.90;;;8.57;91.24;100818.91;5072753;28;20106;-72
2022/01/07 10:16:19;;;;;;;24.00;7.97;;;8.20;99.90;;;8.97;89.45;100813.72;5072443;28;20045;-73
2022/01/07 10:18:53;;;;;;;25.10;7.97;;;8.70;99.90;;;9.27;87.69;100798.78;5072946;28;20079;-71
2022/01/07 10:21:22;;;;;;;21.15;7.55;;;9.00;99.90;;;9.18;86.36;100785.56;5072285;28;20059;-72
2022/01/07 10:24:02;;;;;;;18.92;6.25;;;9.20;99.90;;;9.42;85.31;100806.69;5072870;28;20040;-71
2022/01/07 10:26:31;;;;;;;19.08;6.78;;;9.20;99.90;;;9.53;84.14;100811.06;5072330;28;20127;-73
2022/01/07 10:29:00;;;;;;;17.77;7.07;;;9.40;99.90;;;9.75;84.09;100799.59;5072525;28;20072;-74
2022/01/07 10:31:28;;;;;;;20.30;6.50;;;9.50;99.90;;;9.80;82.95;100803.09;5072373;28;20448;-74
2022/01/07 10:34:05;;;;;;;21.95;6.70;;;9.60;99.90;;;9.55;81.77;100793.47;5072129;28;20055;-75
2022/01/07 10:36:40;;;;;;;16.83;6.15;;;9.40;99.90;;;9.55;81.83;100806.66;5072220;28;20095;-77